ジャカルタ の空港の天気 - METARとTAF

スカルノハッタ国際空港 ( WIII / CGK ) - インドネシア バンテン州、Cengkareng ( ジャカルタ近郊)
飛行場実況気象(Metar)
観測時間05/28 19:00 WIB (05/28 12:00 UTC)
風向・風速不定 2m/s
視程5000m
天気現象煙霧
少しの雲 雲底高度 550m
気温28℃
湿度84%
気圧1009hPa
METARWIII 281200Z VRB03KT 5000 HZ FEW018 28/25 Q1009 NOSIG
過去の天気等 Google飛行場航空写真 Wunderground天気予報

過去48時間のMETAR

飛行場予報(TAF)
発表時間: 5/28 18:00 WIB (5/28 11:00 UTC)
予報対象時間: 28日19時 WIB ~ 30日1時 WIB
風向・風速不定 3m/s
視程5,000m
天気現象煙霧
全天の4割程度の雲 雲底高度 610m
28日19時 WIB ~ 28日23時 WIB に一時的に
視程4,000m
天気現象弱い雨
全天の8割程度の雲 雲底高度 610m
29日9時 WIB ~ 29日11時 WIB に徐々に
風向・風速北北東 5m/s
視程9,000m
天気現象運行に影響にある天気現象が終了
TAF WIII 281100Z 2812/2918 VRB05KT 5000 HZ SCT020
TEMPO 2812/2816 4000 -RA BKN020
BECMG 2902/2904 03010KT 9000 NSW